createdAt,value
2023-12-09T00:01:59.081Z,15.60
2023-12-09T00:04:26.909Z,15.95
2023-12-09T00:06:54.753Z,14.73
2023-12-09T00:09:22.450Z,14.50
2023-12-09T00:11:53.623Z,14.23
2023-12-09T00:14:31.306Z,14.48
2023-12-09T00:17:02.513Z,14.50
2023-12-09T00:19:30.875Z,14.05
2023-12-09T00:21:58.656Z,13.63
2023-12-09T00:24:26.328Z,14.23
2023-12-09T00:26:54.007Z,14.27
2023-12-09T00:29:21.647Z,16.23
2023-12-09T00:31:49.348Z,14.93
2023-12-09T00:34:16.905Z,15.63
2023-12-09T00:37:22.216Z,17.15
2023-12-09T00:39:49.752Z,17.52
2023-12-09T00:42:17.434Z,17.20
2023-12-09T00:44:45.125Z,18.05
2023-12-09T00:47:12.891Z,17.92
2023-12-09T00:49:40.949Z,18.23
2023-12-09T00:52:08.933Z,17.05
2023-12-09T00:54:36.573Z,17.50
2023-12-09T00:57:04.770Z,17.25
2023-12-09T00:59:32.543Z,17.98
2023-12-09T01:02:00.408Z,18.02
2023-12-09T01:04:28.245Z,18.42
2023-12-09T01:06:57.150Z,18.45
2023-12-09T01:09:27.672Z,17.40
2023-12-09T01:11:55.587Z,15.52
2023-12-09T01:14:26.082Z,12.43
2023-12-09T01:16:54.016Z,15.20
2023-12-09T01:19:27.353Z,13.98
2023-12-09T01:21:58.080Z,15.30
2023-12-09T01:24:26.076Z,15.02
2023-12-09T01:26:53.787Z,13.68
2023-12-09T01:29:26.958Z,14.25
2023-12-09T01:31:54.759Z,14.07
2023-12-09T01:34:31.578Z,15.07
2023-12-09T01:37:04.130Z,14.15
2023-12-09T01:39:31.675Z,14.55
2023-12-09T01:41:59.342Z,14.52
2023-12-09T01:44:26.980Z,12.88
2023-12-09T01:46:55.172Z,11.40
2023-12-09T01:49:23.112Z,12.40
2023-12-09T01:51:51.605Z,12.68
2023-12-09T01:54:21.417Z,13.57
2023-12-09T01:56:49.379Z,14.00
2023-12-09T01:59:18.881Z,13.05
2023-12-09T02:01:47.814Z,13.52
2023-12-09T02:04:20.501Z,14.10
2023-12-09T02:06:48.533Z,13.75
2023-12-09T02:09:18.177Z,12.65
2023-12-09T02:12:27.316Z,13.45
2023-12-09T02:15:05.291Z,12.07
2023-12-09T02:17:43.885Z,11.25
2023-12-09T02:20:15.359Z,11.95
2023-12-09T02:22:43.127Z,12.63
2023-12-09T02:25:11.120Z,13.63
2023-12-09T02:27:47.207Z,13.75
2023-12-09T02:30:44.384Z,13.15
2023-12-09T02:33:14.554Z,12.93
2023-12-09T02:35:45.521Z,12.95
2023-12-09T02:38:15.031Z,12.80
2023-12-09T02:40:43.622Z,12.75
2023-12-09T02:43:11.580Z,12.80
2023-12-09T02:45:42.364Z,11.65
2023-12-09T02:48:10.557Z,12.48
2023-12-09T02:50:40.941Z,12.00
2023-12-09T02:53:09.153Z,12.90
2023-12-09T02:55:40.640Z,12.32
2023-12-09T02:58:16.414Z,11.05
2023-12-09T03:00:51.677Z,11.40
2023-12-09T03:03:23.902Z,11.50
2023-12-09T03:05:52.236Z,11.95
2023-12-09T03:08:33.128Z,11.70
2023-12-09T03:11:24.812Z,11.13
2023-12-09T03:13:53.905Z,10.32
2023-12-09T03:16:23.877Z,11.73
2023-12-09T03:18:56.582Z,11.45
2023-12-09T03:21:24.375Z,11.55
2023-12-09T03:23:57.261Z,10.80
2023-12-09T03:26:29.298Z,11.35
2023-12-09T03:28:57.222Z,11.15
2023-12-09T03:31:28.816Z,11.02
2023-12-09T03:34:02.352Z,12.88
2023-12-09T03:36:32.710Z,13.23
2023-12-09T03:39:03.680Z,12.45
2023-12-09T03:41:39.396Z,11.38
2023-12-09T03:44:20.636Z,10.32
2023-12-09T03:51:54.915Z,11.57
2023-12-09T03:54:31.715Z,10.48
2023-12-09T03:57:06.331Z,10.02
2023-12-09T03:59:34.207Z,11.50
2023-12-09T04:02:02.179Z,10.93
2023-12-09T04:04:33.193Z,9.60
2023-12-09T04:10:56.772Z,10.55
2023-12-09T04:13:48.076Z,10.38
2023-12-09T04:16:21.872Z,9.48
2023-12-09T04:18:49.795Z,9.98
2023-12-09T04:21:23.136Z,10.85
2023-12-09T04:23:58.101Z,10.45
2023-12-09T04:27:04.883Z,10.27
2023-12-09T04:33:47.424Z,10.35
2023-12-09T04:36:24.594Z,10.30
2023-12-09T04:39:18.287Z,10.10
2023-12-09T04:43:05.786Z,10.23
2023-12-09T04:45:34.389Z,9.98
2023-12-09T04:51:27.614Z,11.07
2023-12-09T04:53:55.431Z,11.20
2023-12-09T05:00:50.353Z,10.68
2023-12-09T05:03:19.512Z,11.13
2023-12-09T05:05:50.355Z,10.60
2023-12-09T05:08:33.398Z,10.32
2023-12-09T05:11:14.819Z,10.07
2023-12-09T05:15:24.121Z,11.73
2023-12-09T05:17:58.334Z,11.20
2023-12-09T05:20:52.949Z,10.05
2023-12-09T05:23:59.914Z,9.15
2023-12-09T05:27:03.161Z,9.00
2023-12-09T05:32:40.918Z,9.23
2023-12-09T05:35:19.485Z,8.50
2023-12-09T05:38:08.866Z,8.95
2023-12-09T05:40:49.620Z,8.70
2023-12-09T05:43:30.275Z,9.02
2023-12-09T05:46:27.125Z,8.38
2023-12-09T05:49:11.366Z,7.90
2023-12-09T05:51:46.881Z,7.82
2023-12-09T05:54:45.081Z,8.05
2023-12-09T05:57:23.968Z,9.52
2023-12-09T06:00:03.871Z,8.07
2023-12-09T06:02:37.960Z,9.63
2023-12-09T06:05:14.034Z,11.63
2023-12-09T06:07:41.692Z,9.40
2023-12-09T06:10:09.650Z,10.55
2023-12-09T06:12:37.462Z,12.27
2023-12-09T06:15:07.067Z,16.13
2023-12-09T06:17:37.288Z,16.95
2023-12-09T06:20:08.378Z,16.58
2023-12-09T06:22:36.137Z,15.30
2023-12-09T06:25:44.721Z,16.35
2023-12-09T06:28:47.352Z,18.23
2023-12-09T06:31:13.110Z,15.32
2023-12-09T06:33:45.050Z,16.33
2023-12-09T06:36:20.734Z,15.18
2023-12-09T06:42:09.516Z,16.77
2023-12-09T06:44:41.772Z,14.80
2023-12-09T06:47:12.848Z,13.05
2023-12-09T06:49:40.750Z,14.85
2023-12-09T06:52:08.448Z,13.65
2023-12-09T06:54:36.467Z,14.05
2023-12-09T06:57:14.926Z,11.85
2023-12-09T06:59:42.691Z,12.63
2023-12-09T07:02:21.645Z,12.02
2023-12-09T07:04:49.687Z,9.07
2023-12-09T07:07:22.760Z,8.65
2023-12-09T07:09:56.501Z,9.35
2023-12-09T07:12:27.159Z,9.43
2023-12-09T07:14:55.284Z,8.52
2023-12-09T07:17:25.441Z,8.65
2023-12-09T07:19:54.221Z,9.27
2023-12-09T07:22:22.797Z,8.57
2023-12-09T07:24:53.387Z,8.52
2023-12-09T07:27:21.042Z,8.80
2023-12-09T07:29:48.651Z,7.95
2023-12-09T07:32:17.561Z,8.70
2023-12-09T07:34:46.868Z,9.93
2023-12-09T07:37:16.131Z,10.57
2023-12-09T07:39:43.872Z,10.10
2023-12-09T07:42:11.659Z,11.25
2023-12-09T07:44:39.333Z,12.63
2023-12-09T07:47:06.932Z,10.98
2023-12-09T07:49:34.758Z,10.48
2023-12-09T07:52:06.963Z,10.82
2023-12-09T07:54:49.930Z,11.73
2023-12-09T07:57:18.587Z,12.25
2023-12-09T07:59:46.188Z,12.05
2023-12-09T08:02:23.552Z,12.40
2023-12-09T08:05:03.329Z,11.73
2023-12-09T08:07:45.782Z,11.52
2023-12-09T08:10:22.683Z,11.60
2023-12-09T08:13:01.310Z,11.98
2023-12-09T08:15:29.095Z,12.75
2023-12-09T08:17:56.877Z,12.32
2023-12-09T08:20:25.107Z,12.48
2023-12-09T08:22:52.715Z,12.10
2023-12-09T08:25:20.305Z,12.40
2023-12-09T08:27:47.907Z,12.45
2023-12-09T08:30:15.657Z,12.63
2023-12-09T08:32:43.670Z,11.98
2023-12-09T08:35:12.249Z,11.55
2023-12-09T08:37:40.544Z,14.52
2023-12-09T08:40:14.380Z,13.77
2023-12-09T08:42:45.796Z,14.95
2023-12-09T08:45:17.102Z,14.13
2023-12-09T08:47:45.763Z,15.05
2023-12-09T08:52:45.523Z,17.40
2023-12-09T08:55:13.178Z,16.60
2023-12-09T08:57:40.838Z,15.32
2023-12-09T09:00:09.818Z,14.55
2023-12-09T09:02:38.097Z,14.40
2023-12-09T09:05:06.282Z,13.80
2023-12-09T09:07:37.761Z,13.45
2023-12-09T09:10:05.845Z,12.48
2023-12-09T09:12:33.520Z,11.32
2023-12-09T09:15:04.628Z,12.40
2023-12-09T09:17:36.656Z,13.23
2023-12-09T09:20:07.057Z,12.57
2023-12-09T09:22:35.472Z,12.55
2023-12-09T09:25:03.750Z,12.20
2023-12-09T09:27:31.979Z,13.35
2023-12-09T09:29:59.747Z,13.43
2023-12-09T09:32:31.044Z,12.60
2023-12-09T09:34:58.990Z,13.27
2023-12-09T09:37:26.814Z,13.13
2023-12-09T09:39:54.645Z,12.07
2023-12-09T09:42:34.373Z,13.43
2023-12-09T09:45:11.338Z,11.98
2023-12-09T09:47:39.259Z,13.80
2023-12-09T09:50:09.777Z,15.18
2023-12-09T09:52:38.769Z,14.88
2023-12-09T09:55:09.694Z,15.20
2023-12-09T09:57:38.462Z,14.95
2023-12-09T10:00:16.026Z,16.38
2023-12-09T10:02:47.735Z,16.20
2023-12-09T10:05:17.737Z,16.90
2023-12-09T10:07:46.124Z,17.23
2023-12-09T10:10:15.268Z,17.17
2023-12-09T10:12:44.137Z,17.70
2023-12-09T10:15:17.264Z,18.25
2023-12-09T10:17:45.381Z,18.83
2023-12-09T10:20:13.365Z,16.77
2023-12-09T10:22:41.654Z,16.92
2023-12-09T10:25:09.553Z,16.65
2023-12-09T10:27:37.229Z,16.10
2023-12-09T10:30:07.081Z,15.85
2023-12-09T10:32:35.218Z,16.35
2023-12-09T10:35:05.436Z,15.05
2023-12-09T10:37:34.268Z,15.50
2023-12-09T10:40:07.964Z,15.10
2023-12-09T10:42:39.021Z,15.60
2023-12-09T10:45:09.337Z,14.90
2023-12-09T10:47:37.318Z,15.10
2023-12-09T10:50:05.996Z,13.70
2023-12-09T10:52:35.875Z,14.00
2023-12-09T10:55:05.456Z,14.30
2023-12-09T10:57:34.900Z,13.90
2023-12-09T11:00:11.182Z,13.93
2023-12-09T11:02:42.273Z,12.57
2023-12-09T11:05:12.793Z,21.35
2023-12-09T11:07:41.601Z,13.35
2023-12-09T11:10:12.566Z,13.65
2023-12-09T11:12:42.230Z,13.23
2023-12-09T11:15:17.143Z,14.10
2023-12-09T11:17:46.401Z,13.32
2023-12-09T11:20:20.752Z,14.05
2023-12-09T11:22:49.207Z,13.52
2023-12-09T11:25:27.085Z,14.57
2023-12-09T11:27:55.067Z,14.13
2023-12-09T11:30:37.987Z,14.43
2023-12-09T11:33:06.533Z,14.35
2023-12-09T11:35:38.657Z,15.75
2023-12-09T11:38:08.791Z,14.70
2023-12-09T11:40:38.973Z,15.50
2023-12-09T11:43:09.569Z,15.48
2023-12-09T11:45:40.365Z,15.93
2023-12-09T11:48:10.192Z,16.50
2023-12-09T11:50:40.710Z,17.08
2023-12-09T11:53:08.336Z,17.95
2023-12-09T11:55:36.048Z,16.98
2023-12-09T11:58:04.951Z,18.15
2023-12-09T12:00:32.567Z,17.67
2023-12-09T12:03:00.912Z,17.83
2023-12-09T12:06:07.548Z,17.75
2023-12-09T12:08:35.382Z,18.15
2023-12-09T12:11:04.635Z,16.20
2023-12-09T12:13:33.480Z,18.13
2023-12-09T12:16:04.920Z,15.70
2023-12-09T12:18:34.009Z,15.88
2023-12-09T12:21:02.317Z,17.17
2023-12-09T12:23:33.050Z,15.52
2023-12-09T12:26:22.418Z,14.85
2023-12-09T12:28:52.956Z,13.90
2023-12-09T12:31:21.953Z,14.52
2023-12-09T12:33:49.811Z,12.90
2023-12-09T12:36:36.818Z,12.10
2023-12-09T12:39:07.340Z,13.25
2023-12-09T12:41:35.035Z,12.27
2023-12-09T12:44:02.781Z,12.18
2023-12-09T12:46:50.688Z,12.55
2023-12-09T12:49:18.407Z,13.50
2023-12-09T12:51:46.268Z,17.90
2023-12-09T12:54:14.109Z,21.25
2023-12-09T12:56:43.023Z,21.50
2023-12-09T12:59:13.859Z,21.52
2023-12-09T13:01:41.479Z,21.50
2023-12-09T13:04:10.117Z,22.13
2023-12-09T13:06:37.827Z,22.10
2023-12-09T13:09:05.863Z,22.40
2023-12-09T13:11:33.677Z,22.42
2023-12-09T13:14:01.451Z,21.83
2023-12-09T13:16:29.278Z,22.02
2023-12-09T13:18:57.036Z,22.58
2023-12-09T13:21:24.740Z,22.60
2023-12-09T13:23:52.951Z,22.65
2023-12-09T13:26:20.918Z,22.05
2023-12-09T13:28:48.565Z,21.15
2023-12-09T13:31:20.030Z,23.02
2023-12-09T13:33:48.467Z,22.50
2023-12-09T13:36:17.745Z,22.45
2023-12-09T13:38:45.791Z,23.05
2023-12-09T13:41:14.644Z,23.42
2023-12-09T13:43:43.956Z,24.08
2023-12-09T13:46:11.707Z,23.65
2023-12-09T13:48:42.370Z,25.10
2023-12-09T13:51:13.223Z,22.42
2023-12-09T14:03:12.679Z,20.08
2023-12-09T14:05:40.833Z,21.27
2023-12-09T14:08:08.829Z,22.92
2023-12-09T14:10:36.661Z,22.50
2023-12-09T14:13:04.336Z,22.77
2023-12-09T14:15:33.270Z,22.20
2023-12-09T14:18:01.187Z,23.63
2023-12-09T14:20:29.620Z,25.33
2023-12-09T14:22:58.071Z,24.20
2023-12-09T14:25:44.711Z,24.65
2023-12-09T14:28:12.461Z,24.02
2023-12-09T14:30:40.172Z,25.05
2023-12-09T14:33:07.930Z,25.80
2023-12-09T14:35:35.919Z,28.15
2023-12-09T14:38:04.590Z,26.45
2023-12-09T14:40:32.466Z,27.95
2023-12-09T14:43:07.687Z,27.58
2023-12-09T14:45:37.565Z,28.40
2023-12-09T14:48:08.140Z,28.42
2023-12-09T14:50:36.508Z,29.27
2023-12-09T14:53:04.220Z,28.67
2023-12-09T14:55:55.327Z,29.20
2023-12-09T14:58:23.045Z,28.63
2023-12-09T15:00:51.432Z,30.80
2023-12-09T15:03:19.464Z,29.95
2023-12-09T15:05:50.788Z,29.98
2023-12-09T15:08:23.564Z,30.80
2023-12-09T15:10:53.853Z,29.27
2023-12-09T15:13:24.684Z,31.63
2023-12-09T15:15:52.990Z,31.58
2023-12-09T15:18:23.251Z,30.52
2023-12-09T15:20:52.391Z,31.23
2023-12-09T15:23:23.011Z,29.98
2023-12-09T15:25:53.890Z,30.08
2023-12-09T15:28:22.103Z,30.83
2023-12-09T15:30:51.584Z,31.50
2023-12-09T15:33:19.950Z,30.35
2023-12-09T15:35:49.023Z,30.30
2023-12-09T15:38:16.690Z,30.42
2023-12-09T15:40:45.581Z,29.63
2023-12-09T15:43:14.356Z,30.88
2023-12-09T15:45:43.785Z,30.77
2023-12-09T15:48:15.385Z,30.42
2023-12-09T15:50:46.188Z,31.73
2023-12-09T15:53:14.081Z,32.70
2023-12-09T15:55:41.826Z,31.27
2023-12-09T15:58:09.801Z,29.67
2023-12-09T16:00:42.310Z,31.65
2023-12-09T16:03:16.917Z,31.75
2023-12-09T16:05:44.986Z,32.70
2023-12-09T16:08:12.860Z,31.23
2023-12-09T16:10:40.767Z,30.90
2023-12-09T16:13:09.284Z,32.55
2023-12-09T16:15:37.717Z,30.90
2023-12-09T16:18:08.041Z,31.92
2023-12-09T16:20:35.759Z,32.58
2023-12-09T16:23:03.404Z,31.23
2023-12-09T16:25:31.283Z,30.73
2023-12-09T16:27:59.106Z,31.83
2023-12-09T16:30:26.786Z,29.77
2023-12-09T16:32:54.556Z,30.20
2023-12-09T16:35:22.476Z,30.70
2023-12-09T16:37:50.572Z,28.98
2023-12-09T16:40:18.284Z,29.00
2023-12-09T16:42:46.009Z,29.77
2023-12-09T16:45:15.146Z,30.23
2023-12-09T16:47:46.333Z,28.55
2023-12-09T16:50:15.111Z,27.67
2023-12-09T16:52:44.062Z,30.45
2023-12-09T16:55:11.909Z,30.65
2023-12-09T16:57:40.156Z,28.33
2023-12-09T17:00:08.568Z,30.88
2023-12-09T17:03:24.416Z,30.45
2023-12-09T17:06:16.124Z,30.63
2023-12-09T17:08:43.901Z,31.25
2023-12-09T17:11:11.754Z,30.50
2023-12-09T17:13:39.372Z,30.15
2023-12-09T17:16:07.643Z,28.55
2023-12-09T17:18:35.364Z,29.83
2023-12-09T17:21:03.856Z,29.95
2023-12-09T17:23:37.794Z,30.45
2023-12-09T17:26:07.943Z,31.02
2023-12-09T17:28:38.129Z,31.95
2023-12-09T17:31:07.083Z,31.35
2023-12-09T17:33:35.021Z,32.80
2023-12-09T17:36:02.894Z,29.98
2023-12-09T17:38:30.897Z,32.50
2023-12-09T17:40:59.034Z,30.05
2023-12-09T17:43:27.438Z,30.58
2023-12-09T17:45:55.477Z,28.92
2023-12-09T17:48:25.172Z,30.92
2023-12-09T17:50:56.167Z,29.45
2023-12-09T17:53:26.666Z,35.75
2023-12-09T17:56:03.970Z,34.72
2023-12-09T17:58:31.682Z,35.50
2023-12-09T18:01:03.276Z,35.63
2023-12-09T18:03:31.061Z,36.75
2023-12-09T18:06:11.678Z,36.30
2023-12-09T18:11:09.722Z,37.30
2023-12-09T18:13:40.688Z,38.25
2023-12-09T18:16:10.022Z,35.83
2023-12-09T18:18:38.144Z,37.10
2023-12-09T18:21:06.093Z,38.22
2023-12-09T18:23:33.647Z,37.25
2023-12-09T18:26:03.950Z,37.10
2023-12-09T18:28:38.912Z,38.38
2023-12-09T18:31:07.464Z,39.15
2023-12-09T18:33:38.410Z,37.30
2023-12-09T18:36:07.850Z,39.08
2023-12-09T18:38:35.462Z,37.75
2023-12-09T18:41:04.366Z,36.78
2023-12-09T18:43:33.932Z,36.85
2023-12-09T18:46:05.215Z,37.10
2023-12-09T18:48:33.246Z,37.65
2023-12-09T18:51:01.782Z,36.38
2023-12-09T18:53:30.563Z,38.30
2023-12-09T18:55:58.452Z,40.17
2023-12-09T18:58:28.034Z,40.40
2023-12-09T19:01:04.801Z,36.50
2023-12-09T19:03:38.281Z,37.10
2023-12-09T19:06:06.441Z,36.28
2023-12-09T19:08:34.061Z,35.38
2023-12-09T19:11:01.732Z,37.72
2023-12-09T19:13:29.459Z,38.78
2023-12-09T19:15:57.481Z,38.45
2023-12-09T19:18:25.296Z,38.17
2023-12-09T19:20:52.977Z,37.72
2023-12-09T19:23:20.639Z,35.83
2023-12-09T19:25:48.314Z,40.88
2023-12-09T19:28:16.361Z,36.15
2023-12-09T19:30:44.231Z,31.98
2023-12-09T19:33:12.031Z,31.05
2023-12-09T19:35:39.764Z,31.70
2023-12-09T19:38:07.691Z,30.35
2023-12-09T19:40:39.208Z,33.15
2023-12-09T19:43:12.793Z,33.33
2023-12-09T19:46:00.355Z,33.47
2023-12-09T19:48:39.610Z,34.83
2023-12-09T19:51:07.987Z,38.65
2023-12-09T19:53:46.144Z,35.33
2023-12-09T19:56:19.805Z,38.78
2023-12-09T19:58:50.787Z,37.17
2023-12-09T20:01:24.272Z,39.03
2023-12-09T20:03:53.197Z,38.65
2023-12-09T20:06:21.245Z,40.05
2023-12-09T20:09:03.217Z,36.45
2023-12-09T20:14:27.262Z,35.17
2023-12-09T20:17:01.137Z,35.78
2023-12-09T20:19:56.509Z,36.65
2023-12-09T20:22:28.176Z,34.88
2023-12-09T20:25:02.191Z,35.78
2023-12-09T20:27:32.040Z,34.40
2023-12-09T20:30:11.064Z,35.60
2023-12-09T20:32:55.994Z,36.55
2023-12-09T20:35:39.722Z,35.33
2023-12-09T20:38:33.844Z,35.25
2023-12-09T20:41:15.351Z,35.15
2023-12-09T20:46:44.796Z,35.20
2023-12-09T20:49:22.405Z,37.15
2023-12-09T20:51:53.635Z,37.83
2023-12-09T20:54:24.973Z,39.58
2023-12-09T20:57:05.046Z,35.90
2023-12-09T20:59:33.046Z,39.58
2023-12-09T21:02:00.871Z,38.38
2023-12-09T21:04:28.498Z,41.55
2023-12-09T21:06:56.324Z,41.03
2023-12-09T21:09:24.413Z,41.08
2023-12-09T21:11:53.475Z,42.42
2023-12-09T21:14:21.722Z,41.88
2023-12-09T21:16:52.655Z,42.53
2023-12-09T21:19:20.647Z,45.85
2023-12-09T21:21:54.640Z,43.40
2023-12-09T21:24:22.621Z,42.42
2023-12-09T21:26:50.241Z,43.45
2023-12-09T21:29:17.996Z,43.40
2023-12-09T21:31:48.415Z,44.78
2023-12-09T21:34:18.288Z,42.15
2023-12-09T21:36:46.602Z,42.63
2023-12-09T21:39:17.719Z,42.83
2023-12-09T21:41:48.234Z,43.63
2023-12-09T21:44:15.845Z,42.60
2023-12-09T21:46:46.518Z,41.53
2023-12-09T21:49:17.382Z,41.63
2023-12-09T21:51:48.278Z,41.13
2023-12-09T21:54:19.121Z,41.80
2023-12-09T21:56:57.703Z,40.63
2023-12-09T21:59:47.536Z,41.75
2023-12-09T22:02:33.673Z,40.40
2023-12-09T22:05:30.948Z,43.80
2023-12-09T22:08:09.334Z,43.00
2023-12-09T22:10:56.449Z,43.15
2023-12-09T22:17:23.503Z,44.67
2023-12-09T22:20:37.637Z,41.58
2023-12-09T22:23:09.741Z,43.28
2023-12-09T22:25:43.884Z,43.88
2023-12-09T22:28:24.379Z,44.88
2023-12-09T22:30:55.078Z,43.40
2023-12-09T22:52:01.712Z,39.78
